Flight Track Log - Related Links

Times and Time Zones

All times are in EDT time to prevent confusion due to time zone crossing. See the C-GFMT flight status page for this flight to view local times or setup timezone preferences in your user account.

Time Position Orientation Groundspeed Altitude Reporting Facility
EDT Latitude Longitude Course Direction KTS MPH feet Rate Location/Type
Wed 02:55:01 PM 43.8333 -79.3333 193° South 110 127 1,700  Level Toronto Center
Wed 02:56:01 PM 43.8167 -79.3167 144° Southeast 100 115 2,700 750 Climbing Toronto Center
Wed 02:57:01 PM 43.7833 -79.2667 133° Southeast 110 127 3,200 250 Climbing Toronto Center
Wed 02:58:00 PM 43.8622 -79.3700 220° Southwest  Level Estimated
Wed 02:58:01 PM 43.7500 -79.2333 144° Southeast 120 138 3,200  Level Toronto Center
Wed 02:59:00 PM 43.8622 -79.3700 193° South  Level Estimated
Wed 02:59:01 PM 43.7167 -79.2667 216° Southwest 140 161 3,200  Level Toronto Center
Wed 03:00:00 PM 43.8622 -79.3700 193° South  Level Estimated
Wed 03:00:01 PM 43.6833 -79.2667 180° South 150 173 3,100  Level Toronto Center
Wed 03:01:01 PM 43.6333 -79.2833 194° South 150 173 3,100 -100 Level Toronto Center
Wed 03:02:01 PM 43.6000 -79.3167 216° Southwest 150 173 2,900 -50 Descending Toronto Center
Wed 03:03:01 PM 43.5833 -79.3500 235° Southwest 150 173 3,000 100 Climbing Toronto Center
Wed 03:04:01 PM 43.5500 -79.4000 227° Southwest 150 173 3,100 100 Climbing Toronto Center
Wed 03:05:01 PM 43.5167 -79.4500 227° Southwest 150 173 3,200 50 Climbing Toronto Center
Wed 03:06:01 PM 43.4833 -79.5000 227° Southwest 150 173 3,200  Level Toronto Center
Wed 03:07:01 PM 43.4667 -79.5333 235° Southwest 150 173 3,200  Level Toronto Center
Wed 03:08:01 PM 43.4333 -79.5833 227° Southwest 150 173 3,200  Level Toronto Center
Wed 03:09:01 PM 43.4167 -79.6333 245° Southwest 150 173 3,200  Level Toronto Center
Wed 03:10:01 PM 43.3833 -79.6833 227° Southwest 150 173 3,200  Level Toronto Center
Wed 03:11:01 PM 43.3500 -79.7167 216° Southwest 150 173 3,200  Level Toronto Center
Wed 03:12:01 PM 43.3167 -79.7500 216° Southwest 150 173 3,200 150 Level Toronto Center
Wed 03:13:01 PM 43.3000 -79.8000 245° Southwest 150 173 3,500 400 Climbing Toronto Center
Wed 03:14:01 PM 43.2667 -79.8333 216° Southwest 150 173 4,000 550 Climbing Toronto Center
Wed 03:15:01 PM 43.2500 -79.8833 245° Southwest 160 184 4,600 550 Climbing Toronto Center
Wed 03:16:01 PM 43.2333 -79.9333 245° Southwest 140 161 5,100 250 Climbing Toronto Center
Wed 03:17:01 PM 43.2000 -79.9833 228° Southwest 140 161 5,100 50 Level Toronto Center
Wed 03:18:01 PM 43.1833 -80.0167 236° Southwest 140 161 5,200 50 Climbing Toronto Center
Wed 03:19:01 PM 43.1667 -80.0667 245° Southwest 150 173 5,200 -50 Level Toronto Center
Wed 03:20:01 PM 43.2000 -80.0833 340° North 140 161 5,100  Descending Toronto Center
Wed 03:21:01 PM 43.2000 -80.0500 90° East 140 161 5,200  Climbing Toronto Center
Wed 03:22:01 PM 43.1833 -80.0000 115° Southeast 140 161 5,100  Descending Toronto Center
Wed 03:23:01 PM 43.1500 -80.0167 200° South 140 161 5,200 100 Climbing Toronto Center
Wed 03:24:01 PM 43.1667 -80.0833 289° West 150 173 5,300 50 Climbing Toronto Center
Wed 03:25:01 PM 43.2000 -80.0667 20° North 140 161 5,300  Level Toronto Center
Wed 03:26:01 PM 43.1833 -80.0167 115° Southeast 140 161 5,300  Level Toronto Center
Wed 03:27:01 PM 43.1500 -80.0000 160° South 140 161 5,300  Level Toronto Center
Wed 03:28:01 PM 43.1500 -80.0500 270° West 150 173 5,300 -100 Level Toronto Center
Wed 03:29:01 PM 43.1833 -80.0833 324° Northwest 150 173 5,100 -350 Descending Toronto Center
Wed 03:30:01 PM 43.2000 -80.0667 36° Northeast 140 161 4,600 -450 Descending Toronto Center
Wed 03:31:01 PM 43.1833 -80.0167 115° Southeast 130 150 4,200 -450 Descending Toronto Center
Wed 03:32:01 PM 43.1500 -80.0167 180° South 130 150 3,700 -400 Descending Toronto Center
Wed 03:33:01 PM 43.1500 -80.0667 270° West 140 161 3,400 -400 Descending Toronto Center
Wed 03:34:01 PM 43.1667 -80.1167 295° West 140 161 2,900 -200 Descending Toronto Center
Wed 03:35:01 PM 43.1833 -80.1333 324° Northwest 120 138 3,000  Climbing Toronto Center
Wed 03:36:01 PM 43.2000 -80.1167 36° Northeast 120 138 2,900 50 Descending Toronto Center
Wed 03:37:01 PM 43.2000 -80.0667 90° East 110 127 3,100 -150 Climbing Toronto Center
Wed 03:38:01 PM 43.2000 -80.0500 90° East 90 104 2,600 -450 Descending Toronto Center
Wed 03:39:01 PM 43.1833 -80.0000 115° Southeast 80 92 2,200 -450 Descending Toronto Center
Wed 03:40:01 PM 43.1833 -79.9833 90° East 80 92 1,700 -450 Descending Toronto Center
Wed 03:41:01 PM 43.1667 -79.9500 124° Southeast 80 92 1,300 50 Descending Toronto Center
Wed 03:42:01 PM 43.1667 -79.9333 90° East 80 92 1,800 850 Climbing Toronto Center
Wed 03:43:01 PM 43.1500 -79.8833 115° Southeast 100 115 3,000 700 Climbing Toronto Center
Wed 03:44:01 PM 43.1333 -79.8333 115° Southeast 110 127 3,200 100 Climbing Toronto Center
Wed 03:45:01 PM 43.1167 -79.8167 144° Southeast 120 138 3,200 300 Level Toronto Center
Wed 03:46:01 PM 43.1000 -79.8167 180° South 130 150 3,800 500 Climbing Toronto Center
Wed 03:47:01 PM 43.0833 -79.8833 251° West 140 161 4,200 250 Climbing Toronto Center
Wed 03:48:01 PM 43.1000 -79.9000 324° Northwest 140 161 4,300 50 Climbing Toronto Center
Wed 03:49:01 PM 43.1333 -79.9500 312° West 140 161 4,300 -50 Level Toronto Center
Wed 03:50:01 PM 43.1667 -80.0000 312° West 150 173 4,200 -100 Descending Toronto Center
Wed 03:51:01 PM 43.2000 -80.0167 340° North 150 173 4,100 -100 Descending Toronto Center
Wed 03:52:01 PM 43.2000 -80.0833 270° West 150 173 4,000 -350 Descending Toronto Center
Wed 03:53:01 PM 43.2000 -80.1333 270° West 150 173 3,400 -650 Descending Toronto Center
Wed 03:54:01 PM 43.2000 -80.1833 270° West 120 138 2,700 -350 Descending Toronto Center
Wed 03:55:01 PM 43.2167 -80.1667 36° Northeast 90 104 2,700 50 Level Toronto Center
Wed 03:56:01 PM 43.2167 -80.1333 90° East 90 104 2,800 50 Climbing Toronto Center
Wed 03:57:01 PM 43.2167 -80.0833 90° East 90 104 2,800 100 Level Toronto Center
Wed 03:58:01 PM 43.2000 -80.0667 144° Southeast 90 104 3,000 -200 Climbing Toronto Center
Wed 03:59:01 PM 43.2000 -80.0167 90° East 90 104 2,400 -450 Descending Toronto Center
Wed 04:00:01 PM 43.1833 -80.0000 144° Southeast 80 92 2,100 -350 Descending Toronto Center
Wed 04:01:01 PM 43.1833 -79.9833 90° East 90 104 1,700 -450 Descending Toronto Center
Wed 04:02:01 PM 43.1667 -79.9333 115° Southeast 90 104 1,200 200 Descending Toronto Center
Wed 04:03:01 PM 43.1667 -79.9000 90° East 90 104 2,100 750 Climbing Toronto Center
Wed 04:04:01 PM 43.1667 -79.8833 90° East 100 115 2,700 550 Climbing Toronto Center
Wed 04:05:01 PM 43.2000 -79.8833 360° North 120 138 3,200 300 Climbing Toronto Center
Wed 04:06:01 PM 43.2333 -79.8833 360° North 130 150 3,300 50 Climbing Toronto Center
Wed 04:07:01 PM 43.2667 -79.9000 340° North 140 161 3,300 -100 Level Toronto Center
Wed 04:08:01 PM 43.3000 -79.9333 324° Northwest 140 161 3,100 -100 Descending Toronto Center
Wed 04:09:01 PM 43.3500 -79.9333 360° North 140 161 3,100  Level Toronto Center
Wed 04:10:01 PM 43.3833 -79.9500 340° North 130 150 3,100  Level Toronto Center
Wed 04:11:01 PM 43.4167 -79.9500 360° North 140 161 3,100 50 Level Toronto Center
Wed 04:12:01 PM 43.4500 -79.9500 360° North 130 150 3,200 50 Climbing Toronto Center
Wed 04:13:01 PM 43.5000 -79.9500 360° North 140 161 3,200  Level Toronto Center
Wed 04:14:01 PM 43.5333 -79.9833 324° Northwest 140 161 3,200 -50 Level Toronto Center
Wed 04:15:01 PM 43.5667 -79.9833 360° North 140 161 3,100  Descending Toronto Center
Wed 04:16:01 PM 43.6167 -79.9833 360° North 140 161 3,200  Climbing Toronto Center
Wed 04:17:01 PM 43.6500 -80.0000 340° North 140 161 3,100  Descending Toronto Center
Wed 04:18:01 PM 43.6833 -79.9833 20° North 140 161 3,200  Climbing Toronto Center
Wed 04:19:01 PM 43.7167 -79.9833 360° North 140 161 3,100 -50 Descending Toronto Center
Wed 04:20:01 PM 43.7667 -79.9500 26° Northeast 140 161 3,100 50 Level Toronto Center
Wed 04:21:01 PM 43.8000 -79.9500 360° North 140 161 3,200 50 Climbing Toronto Center
Wed 04:22:01 PM 43.8333 -79.9333 20° North 140 161 3,200 50 Level Toronto Center
Wed 04:23:01 PM 43.8500 -79.8667 71° East 130 150 3,300  Climbing Toronto Center
Wed 04:24:01 PM 43.8500 -79.8333 90° East 130 150 3,200  Descending Toronto Center
Wed 04:25:01 PM 43.8667 -79.7667 71° East 130 150 3,300 -50 Climbing Toronto Center
Wed 04:26:01 PM 43.9000 -79.7500 20° North 140 161 3,100 -50 Descending Toronto Center
Wed 04:27:01 PM 43.9333 -79.7000 47° Northeast 140 161 3,200  Climbing Toronto Center
Wed 04:28:01 PM 43.9500 -79.6833 36° Northeast 130 150 3,100 -50 Descending Toronto Center
Wed 04:29:01 PM 43.9833 -79.6333 47° Northeast 130 150 3,100 50 Level Toronto Center
Wed 04:30:01 PM 44.0000 -79.5833 65° Northeast 130 150 3,200 -50 Climbing Toronto Center
Wed 04:31:01 PM 44.0000 -79.5667 90° East 130 150 3,000  Descending Toronto Center
Wed 04:32:01 PM 43.9833 -79.5167 115° Southeast 130 150 3,200 100 Climbing Toronto Center
Wed 04:33:01 PM 43.9667 -79.4667 115° Southeast 130 150 3,200 -450 Level Toronto Center
Wed 04:34:01 PM 43.9333 -79.4500 160° South 130 150 2,300 -550 Descending Toronto Center
Wed 04:35:01 PM 43.9167 -79.4167 125° Southeast 110 127 2,100 -350 Descending Toronto Center
Wed 04:36:01 PM 43.9000 -79.4000 144° Southeast 90 104 1,600 -450 Descending Toronto Center
Wed 04:37:01 PM 43.8833 -79.3833 144° Southeast 80 92 1,200 -300 Descending Toronto Center
Wed 04:38:01 PM 43.8667 -79.3500 125° Southeast 80 92 1,000 -200 Descending Toronto Center

Login

Don't have an account? Register now (free) for customized features, flight alerts, and more!